sensor_id;sensor_type;location;lat;lon;timestamp;P1;durP1;ratioP1;P2;durP2;ratioP2
6438;SDS011;3252;52.540;13.290;2024-02-21T00:01:04;6.33;;;2.90;;
6438;SDS011;3252;52.540;13.290;2024-02-21T00:03:08;7.33;;;2.90;;
6438;SDS011;3252;52.540;13.290;2024-02-21T00:05:10;8.07;;;2.77;;
6438;SDS011;3252;52.540;13.290;2024-02-21T00:07:12;6.47;;;2.80;;
6438;SDS011;3252;52.540;13.290;2024-02-21T00:09:14;8.33;;;3.10;;
6438;SDS011;3252;52.540;13.290;2024-02-21T00:11:16;6.50;;;2.60;;
6438;SDS011;3252;52.540;13.290;2024-02-21T00:13:18;9.87;;;3.20;;
6438;SDS011;3252;52.540;13.290;2024-02-21T00:15:20;7.37;;;3.23;;
6438;SDS011;3252;52.540;13.290;2024-02-21T00:17:22;9.20;;;3.77;;
6438;SDS011;3252;52.540;13.290;2024-02-21T00:19:27;9.03;;;3.13;;
6438;SDS011;3252;52.540;13.290;2024-02-21T00:21:29;7.30;;;3.27;;
6438;SDS011;3252;52.540;13.290;2024-02-21T00:23:31;5.70;;;2.63;;
6438;SDS011;3252;52.540;13.290;2024-02-21T00:25:33;7.27;;;2.70;;
6438;SDS011;3252;52.540;13.290;2024-02-21T00:27:35;5.77;;;2.77;;
6438;SDS011;3252;52.540;13.290;2024-02-21T00:29:37;8.03;;;2.83;;
6438;SDS011;3252;52.540;13.290;2024-02-21T00:31:39;6.83;;;2.90;;
6438;SDS011;3252;52.540;13.290;2024-02-21T00:33:40;7.27;;;3.23;;
6438;SDS011;3252;52.540;13.290;2024-02-21T00:35:44;6.17;;;2.83;;
6438;SDS011;3252;52.540;13.290;2024-02-21T00:37:46;6.40;;;2.80;;
6438;SDS011;3252;52.540;13.290;2024-02-21T00:39:48;7.63;;;2.90;;
6438;SDS011;3252;52.540;13.290;2024-02-21T00:41:50;6.20;;;2.63;;
6438;SDS011;3252;52.540;13.290;2024-02-21T00:43:53;7.33;;;3.10;;
6438;SDS011;3252;52.540;13.290;2024-02-21T00:45:55;7.83;;;2.87;;
6438;SDS011;3252;52.540;13.290;2024-02-21T00:47:56;6.40;;;2.63;;
6438;SDS011;3252;52.540;13.290;2024-02-21T00:49:58;8.37;;;3.13;;
6438;SDS011;3252;52.540;13.290;2024-02-21T00:52:02;8.10;;;3.00;;
6438;SDS011;3252;52.540;13.290;2024-02-21T00:54:04;7.33;;;2.67;;
6438;SDS011;3252;52.540;13.290;2024-02-21T00:56:07;6.57;;;2.80;;
6438;SDS011;3252;52.540;13.290;2024-02-21T00:58:09;5.90;;;2.70;;
6438;SDS011;3252;52.540;13.290;2024-02-21T01:00:11;6.73;;;2.87;;
6438;SDS011;3252;52.540;13.290;2024-02-21T01:02:14;5.57;;;2.50;;
6438;SDS011;3252;52.540;13.290;2024-02-21T01:04:16;6.97;;;2.70;;
6438;SDS011;3252;52.540;13.290;2024-02-21T01:06:18;6.30;;;2.90;;
6438;SDS011;3252;52.540;13.290;2024-02-21T01:08:21;5.33;;;2.40;;
6438;SDS011;3252;52.540;13.290;2024-02-21T01:10:23;7.30;;;3.13;;
6438;SDS011;3252;52.540;13.290;2024-02-21T01:12:26;6.23;;;2.60;;
6438;SDS011;3252;52.540;13.290;2024-02-21T01:14:28;4.83;;;2.23;;
6438;SDS011;3252;52.540;13.290;2024-02-21T01:16:30;5.67;;;2.47;;
6438;SDS011;3252;52.540;13.290;2024-02-21T01:18:32;6.03;;;2.53;;
6438;SDS011;3252;52.540;13.290;2024-02-21T01:20:33;6.00;;;2.60;;
6438;SDS011;3252;52.540;13.290;2024-02-21T01:22:36;4.97;;;2.40;;
6438;SDS011;3252;52.540;13.290;2024-02-21T01:24:39;5.30;;;2.60;;
6438;SDS011;3252;52.540;13.290;2024-02-21T01:26:41;5.60;;;2.70;;
6438;SDS011;3252;52.540;13.290;2024-02-21T01:28:42;5.80;;;2.60;;
6438;SDS011;3252;52.540;13.290;2024-02-21T01:30:44;5.43;;;2.50;;
6438;SDS011;3252;52.540;13.290;2024-02-21T01:32:46;6.30;;;2.57;;
6438;SDS011;3252;52.540;13.290;2024-02-21T01:34:48;7.60;;;2.40;;
6438;SDS011;3252;52.540;13.290;2024-02-21T01:36:51;8.27;;;3.47;;
6438;SDS011;3252;52.540;13.290;2024-02-21T01:38:53;5.00;;;2.40;;
6438;SDS011;3252;52.540;13.290;2024-02-21T01:40:56;4.43;;;2.23;;
6438;SDS011;3252;52.540;13.290;2024-02-21T01:42:58;4.80;;;2.27;;
6438;SDS011;3252;52.540;13.290;2024-02-21T01:44:59;5.10;;;2.30;;
6438;SDS011;3252;52.540;13.290;2024-02-21T01:47:01;5.30;;;2.43;;
6438;SDS011;3252;52.540;13.290;2024-02-21T01:49:04;4.30;;;2.30;;
6438;SDS011;3252;52.540;13.290;2024-02-21T01:51:06;6.47;;;2.30;;
6438;SDS011;3252;52.540;13.290;2024-02-21T01:53:07;4.70;;;2.27;;
6438;SDS011;3252;52.540;13.290;2024-02-21T01:55:10;5.80;;;2.60;;
6438;SDS011;3252;52.540;13.290;2024-02-21T01:57:15;5.83;;;2.60;;
6438;SDS011;3252;52.540;13.290;2024-02-21T01:59:18;5.20;;;2.30;;
6438;SDS011;3252;52.540;13.290;2024-02-21T02:01:20;4.93;;;2.60;;
6438;SDS011;3252;52.540;13.290;2024-02-21T02:03:23;5.43;;;2.27;;
6438;SDS011;3252;52.540;13.290;2024-02-21T02:05:25;4.07;;;2.30;;
6438;SDS011;3252;52.540;13.290;2024-02-21T02:07:27;5.10;;;2.27;;
6438;SDS011;3252;52.540;13.290;2024-02-21T02:09:29;5.13;;;2.67;;
6438;SDS011;3252;52.540;13.290;2024-02-21T02:11:31;4.50;;;2.30;;
6438;SDS011;3252;52.540;13.290;2024-02-21T02:13:35;6.40;;;2.37;;
6438;SDS011;3252;52.540;13.290;2024-02-21T02:15:38;6.10;;;2.30;;
6438;SDS011;3252;52.540;13.290;2024-02-21T02:17:39;4.13;;;2.17;;
6438;SDS011;3252;52.540;13.290;2024-02-21T02:19:42;4.07;;;2.00;;
6438;SDS011;3252;52.540;13.290;2024-02-21T02:21:45;3.70;;;2.03;;
6438;SDS011;3252;52.540;13.290;2024-02-21T02:23:55;5.70;;;2.40;;
6438;SDS011;3252;52.540;13.290;2024-02-21T02:25:56;5.27;;;2.53;;
6438;SDS011;3252;52.540;13.290;2024-02-21T02:27:58;7.50;;;2.70;;
6438;SDS011;3252;52.540;13.290;2024-02-21T02:30:01;4.37;;;2.30;;
6438;SDS011;3252;52.540;13.290;2024-02-21T02:32:03;5.93;;;2.50;;
6438;SDS011;3252;52.540;13.290;2024-02-21T02:34:05;4.57;;;2.10;;
6438;SDS011;3252;52.540;13.290;2024-02-21T02:36:07;4.67;;;2.10;;
6438;SDS011;3252;52.540;13.290;2024-02-21T02:38:09;4.50;;;2.30;;
6438;SDS011;3252;52.540;13.290;2024-02-21T02:40:13;4.37;;;2.13;;
6438;SDS011;3252;52.540;13.290;2024-02-21T02:42:15;5.40;;;2.20;;
6438;SDS011;3252;52.540;13.290;2024-02-21T02:44:17;5.27;;;2.20;;
6438;SDS011;3252;52.540;13.290;2024-02-21T02:46:19;4.77;;;2.40;;
6438;SDS011;3252;52.540;13.290;2024-02-21T02:48:21;5.63;;;2.50;;
6438;SDS011;3252;52.540;13.290;2024-02-21T02:50:24;5.63;;;2.47;;
6438;SDS011;3252;52.540;13.290;2024-02-21T02:52:25;4.40;;;2.07;;
6438;SDS011;3252;52.540;13.290;2024-02-21T02:54:27;4.23;;;2.10;;
6438;SDS011;3252;52.540;13.290;2024-02-21T02:56:31;3.97;;;2.00;;
6438;SDS011;3252;52.540;13.290;2024-02-21T02:58:33;5.63;;;2.20;;
6438;SDS011;3252;52.540;13.290;2024-02-21T03:00:35;4.03;;;1.93;;
6438;SDS011;3252;52.540;13.290;2024-02-21T03:02:38;3.67;;;1.83;;
6438;SDS011;3252;52.540;13.290;2024-02-21T03:04:41;4.30;;;2.10;;
6438;SDS011;3252;52.540;13.290;2024-02-21T03:06:43;4.63;;;2.37;;
6438;SDS011;3252;52.540;13.290;2024-02-21T03:08:45;4.60;;;2.33;;
6438;SDS011;3252;52.540;13.290;2024-02-21T03:10:47;3.07;;;1.73;;
6438;SDS011;3252;52.540;13.290;2024-02-21T03:12:50;4.70;;;1.93;;
6438;SDS011;3252;52.540;13.290;2024-02-21T03:14:53;4.90;;;2.30;;
6438;SDS011;3252;52.540;13.290;2024-02-21T03:16:55;3.80;;;2.07;;
6438;SDS011;3252;52.540;13.290;2024-02-21T03:18:57;4.83;;;2.00;;
6438;SDS011;3252;52.540;13.290;2024-02-21T03:20:59;4.17;;;2.10;;
6438;SDS011;3252;52.540;13.290;2024-02-21T03:23:01;3.50;;;2.17;;
6438;SDS011;3252;52.540;13.290;2024-02-21T03:25:04;4.50;;;1.97;;
6438;SDS011;3252;52.540;13.290;2024-02-21T03:27:07;4.17;;;1.93;;
6438;SDS011;3252;52.540;13.290;2024-02-21T03:29:11;4.07;;;2.20;;
6438;SDS011;3252;52.540;13.290;2024-02-21T03:31:13;3.80;;;2.10;;
6438;SDS011;3252;52.540;13.290;2024-02-21T03:33:15;3.73;;;2.00;;
6438;SDS011;3252;52.540;13.290;2024-02-21T03:35:16;4.97;;;2.07;;
6438;SDS011;3252;52.540;13.290;2024-02-21T03:37:18;4.07;;;1.90;;
6438;SDS011;3252;52.540;13.290;2024-02-21T03:39:20;3.53;;;1.93;;
6438;SDS011;3252;52.540;13.290;2024-02-21T03:41:21;3.07;;;1.83;;
6438;SDS011;3252;52.540;13.290;2024-02-21T03:43:24;3.93;;;2.10;;
6438;SDS011;3252;52.540;13.290;2024-02-21T03:45:27;3.07;;;1.80;;
6438;SDS011;3252;52.540;13.290;2024-02-21T03:47:29;4.43;;;2.10;;
6438;SDS011;3252;52.540;13.290;2024-02-21T03:49:30;4.23;;;1.90;;
6438;SDS011;3252;52.540;13.290;2024-02-21T03:51:33;4.97;;;2.10;;
6438;SDS011;3252;52.540;13.290;2024-02-21T03:53:35;3.70;;;1.93;;
6438;SDS011;3252;52.540;13.290;2024-02-21T03:55:37;3.83;;;1.97;;
6438;SDS011;3252;52.540;13.290;2024-02-21T03:57:39;3.97;;;2.10;;
6438;SDS011;3252;52.540;13.290;2024-02-21T03:59:41;3.57;;;1.90;;
6438;SDS011;3252;52.540;13.290;2024-02-21T04:01:44;3.33;;;1.90;;
6438;SDS011;3252;52.540;13.290;2024-02-21T04:03:46;4.20;;;2.00;;
6438;SDS011;3252;52.540;13.290;2024-02-21T04:05:48;2.60;;;1.60;;
6438;SDS011;3252;52.540;13.290;2024-02-21T04:07:51;4.07;;;2.00;;
6438;SDS011;3252;52.540;13.290;2024-02-21T04:09:53;3.80;;;1.77;;
6438;SDS011;3252;52.540;13.290;2024-02-21T04:11:55;3.67;;;1.73;;
6438;SDS011;3252;52.540;13.290;2024-02-21T04:13:57;3.30;;;1.83;;
6438;SDS011;3252;52.540;13.290;2024-02-21T04:15:59;2.80;;;1.60;;
6438;SDS011;3252;52.540;13.290;2024-02-21T04:18:03;3.97;;;1.90;;
6438;SDS011;3252;52.540;13.290;2024-02-21T04:20:05;3.40;;;1.90;;
6438;SDS011;3252;52.540;13.290;2024-02-21T04:22:08;3.10;;;1.70;;
6438;SDS011;3252;52.540;13.290;2024-02-21T04:24:09;3.20;;;1.80;;
6438;SDS011;3252;52.540;13.290;2024-02-21T04:26:12;2.83;;;1.43;;
6438;SDS011;3252;52.540;13.290;2024-02-21T04:28:14;4.80;;;2.03;;
6438;SDS011;3252;52.540;13.290;2024-02-21T04:30:16;4.27;;;1.70;;
6438;SDS011;3252;52.540;13.290;2024-02-21T04:32:18;3.40;;;1.63;;
6438;SDS011;3252;52.540;13.290;2024-02-21T04:34:22;4.13;;;1.87;;
6438;SDS011;3252;52.540;13.290;2024-02-21T04:36:24;2.50;;;1.47;;
6438;SDS011;3252;52.540;13.290;2024-02-21T04:38:26;2.47;;;1.40;;
6438;SDS011;3252;52.540;13.290;2024-02-21T04:40:28;3.83;;;1.70;;
6438;SDS011;3252;52.540;13.290;2024-02-21T04:42:31;3.67;;;1.97;;
6438;SDS011;3252;52.540;13.290;2024-02-21T04:44:33;3.60;;;2.00;;
6438;SDS011;3252;52.540;13.290;2024-02-21T04:46:35;3.10;;;1.70;;
6438;SDS011;3252;52.540;13.290;2024-02-21T04:48:37;2.93;;;1.40;;
6438;SDS011;3252;52.540;13.290;2024-02-21T04:50:41;2.53;;;1.40;;
6438;SDS011;3252;52.540;13.290;2024-02-21T04:52:43;2.33;;;1.53;;
6438;SDS011;3252;52.540;13.290;2024-02-21T04:54:45;2.80;;;1.53;;
6438;SDS011;3252;52.540;13.290;2024-02-21T04:56:47;3.53;;;1.83;;
6438;SDS011;3252;52.540;13.290;2024-02-21T04:58:49;4.30;;;1.80;;
6438;SDS011;3252;52.540;13.290;2024-02-21T05:00:52;3.63;;;1.77;;
6438;SDS011;3252;52.540;13.290;2024-02-21T05:02:55;2.87;;;1.53;;
6438;SDS011;3252;52.540;13.290;2024-02-21T05:04:57;1.90;;;1.30;;
6438;SDS011;3252;52.540;13.290;2024-02-21T05:07:01;2.77;;;1.60;;
6438;SDS011;3252;52.540;13.290;2024-02-21T05:09:03;2.00;;;1.30;;
6438;SDS011;3252;52.540;13.290;2024-02-21T05:11:05;2.33;;;1.43;;
6438;SDS011;3252;52.540;13.290;2024-02-21T05:13:07;2.55;;;1.55;;
6438;SDS011;3252;52.540;13.290;2024-02-21T05:15:09;3.83;;;1.63;;
6438;SDS011;3252;52.540;13.290;2024-02-21T05:17:11;2.47;;;1.40;;
6438;SDS011;3252;52.540;13.290;2024-02-21T05:19:13;3.13;;;1.60;;
6438;SDS011;3252;52.540;13.290;2024-02-21T05:21:15;2.77;;;1.40;;
6438;SDS011;3252;52.540;13.290;2024-02-21T05:23:19;2.50;;;1.37;;
6438;SDS011;3252;52.540;13.290;2024-02-21T05:25:20;3.37;;;1.60;;
6438;SDS011;3252;52.540;13.290;2024-02-21T05:27:22;2.90;;;1.83;;
6438;SDS011;3252;52.540;13.290;2024-02-21T05:29:24;2.80;;;1.60;;
6438;SDS011;3252;52.540;13.290;2024-02-21T05:31:26;2.57;;;1.40;;
6438;SDS011;3252;52.540;13.290;2024-02-21T05:33:55;2.53;;;1.40;;
6438;SDS011;3252;52.540;13.290;2024-02-21T05:35:57;3.05;;;1.60;;
6438;SDS011;3252;52.540;13.290;2024-02-21T05:37:59;2.58;;;1.30;;
6438;SDS011;3252;52.540;13.290;2024-02-21T05:40:02;3.10;;;1.60;;
6438;SDS011;3252;52.540;13.290;2024-02-21T05:42:05;2.25;;;1.25;;
6438;SDS011;3252;52.540;13.290;2024-02-21T05:44:07;2.63;;;1.60;;
6438;SDS011;3252;52.540;13.290;2024-02-21T05:46:09;2.17;;;1.33;;
6438;SDS011;3252;52.540;13.290;2024-02-21T05:48:11;1.67;;;1.20;;
6438;SDS011;3252;52.540;13.290;2024-02-21T05:50:13;2.22;;;1.40;;
6438;SDS011;3252;52.540;13.290;2024-02-21T05:52:15;2.17;;;1.35;;
6438;SDS011;3252;52.540;13.290;2024-02-21T05:54:17;3.15;;;1.40;;
6438;SDS011;3252;52.540;13.290;2024-02-21T05:56:21;2.10;;;1.42;;
6438;SDS011;3252;52.540;13.290;2024-02-21T05:58:23;2.28;;;1.30;;
6438;SDS011;3252;52.540;13.290;2024-02-21T06:00:25;2.45;;;1.30;;
6438;SDS011;3252;52.540;13.290;2024-02-21T06:02:27;2.00;;;1.30;;
6438;SDS011;3252;52.540;13.290;2024-02-21T06:04:29;2.65;;;1.50;;
6438;SDS011;3252;52.540;13.290;2024-02-21T06:06:31;3.58;;;1.80;;
6438;SDS011;3252;52.540;13.290;2024-02-21T06:08:33;1.88;;;1.23;;
6438;SDS011;3252;52.540;13.290;2024-02-21T06:10:36;2.22;;;1.50;;
6438;SDS011;3252;52.540;13.290;2024-02-21T06:12:39;1.88;;;1.40;;
6438;SDS011;3252;52.540;13.290;2024-02-21T06:14:40;2.85;;;1.52;;
6438;SDS011;3252;52.540;13.290;2024-02-21T06:16:43;2.47;;;1.48;;
6438;SDS011;3252;52.540;13.290;2024-02-21T06:18:45;2.58;;;1.50;;
6438;SDS011;3252;52.540;13.290;2024-02-21T06:20:47;6.32;;;1.88;;
6438;SDS011;3252;52.540;13.290;2024-02-21T06:22:49;3.35;;;1.70;;
6438;SDS011;3252;52.540;13.290;2024-02-21T06:24:51;3.20;;;1.55;;
6438;SDS011;3252;52.540;13.290;2024-02-21T06:26:54;2.85;;;1.50;;
6438;SDS011;3252;52.540;13.290;2024-02-21T06:28:57;3.08;;;1.30;;
6438;SDS011;3252;52.540;13.290;2024-02-21T06:31:02;2.72;;;1.65;;
6438;SDS011;3252;52.540;13.290;2024-02-21T06:33:04;2.40;;;1.20;;
6438;SDS011;3252;52.540;13.290;2024-02-21T06:35:08;6.25;;;2.00;;
6438;SDS011;3252;52.540;13.290;2024-02-21T06:37:10;3.92;;;1.52;;
6438;SDS011;3252;52.540;13.290;2024-02-21T06:39:12;4.50;;;1.60;;
6438;SDS011;3252;52.540;13.290;2024-02-21T06:41:16;4.45;;;2.20;;
6438;SDS011;3252;52.540;13.290;2024-02-21T06:43:20;5.18;;;2.10;;
6438;SDS011;3252;52.540;13.290;2024-02-21T06:45:24;4.75;;;2.22;;
6438;SDS011;3252;52.540;13.290;2024-02-21T06:47:26;6.22;;;2.35;;
6438;SDS011;3252;52.540;13.290;2024-02-21T06:49:28;10.25;;;2.95;;
6438;SDS011;3252;52.540;13.290;2024-02-21T06:51:30;8.45;;;2.90;;
6438;SDS011;3252;52.540;13.290;2024-02-21T06:53:32;6.47;;;2.65;;
6438;SDS011;3252;52.540;13.290;2024-02-21T06:55:34;6.90;;;2.60;;
6438;SDS011;3252;52.540;13.290;2024-02-21T06:57:37;9.98;;;2.85;;
6438;SDS011;3252;52.540;13.290;2024-02-21T06:59:39;10.45;;;3.05;;
6438;SDS011;3252;52.540;13.290;2024-02-21T07:01:45;8.18;;;2.80;;
6438;SDS011;3252;52.540;13.290;2024-02-21T07:03:47;8.27;;;3.40;;
6438;SDS011;3252;52.540;13.290;2024-02-21T07:05:49;7.90;;;3.17;;
6438;SDS011;3252;52.540;13.290;2024-02-21T07:07:52;8.38;;;2.65;;
6438;SDS011;3252;52.540;13.290;2024-02-21T07:09:54;8.18;;;3.03;;
6438;SDS011;3252;52.540;13.290;2024-02-21T07:11:56;8.68;;;3.40;;
6438;SDS011;3252;52.540;13.290;2024-02-21T07:13:58;9.13;;;3.80;;
6438;SDS011;3252;52.540;13.290;2024-02-21T07:16:00;10.57;;;4.20;;
6438;SDS011;3252;52.540;13.290;2024-02-21T07:18:04;12.07;;;4.25;;
6438;SDS011;3252;52.540;13.290;2024-02-21T07:20:06;13.23;;;4.50;;
6438;SDS011;3252;52.540;13.290;2024-02-21T07:22:09;14.20;;;4.75;;
6438;SDS011;3252;52.540;13.290;2024-02-21T07:24:11;12.38;;;4.22;;
6438;SDS011;3252;52.540;13.290;2024-02-21T07:26:14;12.18;;;4.47;;
6438;SDS011;3252;52.540;13.290;2024-02-21T07:28:15;10.00;;;4.63;;
6438;SDS011;3252;52.540;13.290;2024-02-21T07:30:17;11.27;;;4.78;;
6438;SDS011;3252;52.540;13.290;2024-02-21T07:32:19;15.38;;;5.10;;
6438;SDS011;3252;52.540;13.290;2024-02-21T07:34:23;12.35;;;4.35;;
6438;SDS011;3252;52.540;13.290;2024-02-21T07:36:27;11.30;;;3.85;;
6438;SDS011;3252;52.540;13.290;2024-02-21T07:38:30;11.82;;;4.22;;
6438;SDS011;3252;52.540;13.290;2024-02-21T07:40:32;13.45;;;4.65;;
6438;SDS011;3252;52.540;13.290;2024-02-21T07:42:35;10.52;;;4.28;;
6438;SDS011;3252;52.540;13.290;2024-02-21T07:44:37;11.82;;;4.18;;
6438;SDS011;3252;52.540;13.290;2024-02-21T07:46:38;11.75;;;4.38;;
6438;SDS011;3252;52.540;13.290;2024-02-21T07:48:40;9.52;;;4.20;;
6438;SDS011;3252;52.540;13.290;2024-02-21T07:50:42;12.65;;;4.43;;
6438;SDS011;3252;52.540;13.290;2024-02-21T07:52:44;10.95;;;4.07;;
6438;SDS011;3252;52.540;13.290;2024-02-21T07:54:47;12.27;;;4.40;;
6438;SDS011;3252;52.540;13.290;2024-02-21T07:56:48;11.25;;;4.07;;
6438;SDS011;3252;52.540;13.290;2024-02-21T07:58:50;10.68;;;4.25;;
6438;SDS011;3252;52.540;13.290;2024-02-21T08:00:51;11.52;;;4.38;;
6438;SDS011;3252;52.540;13.290;2024-02-21T08:02:53;11.45;;;4.55;;
6438;SDS011;3252;52.540;13.290;2024-02-21T08:04:55;10.82;;;4.53;;
6438;SDS011;3252;52.540;13.290;2024-02-21T08:07:00;11.75;;;4.10;;
6438;SDS011;3252;52.540;13.290;2024-02-21T08:09:04;8.98;;;4.07;;
6438;SDS011;3252;52.540;13.290;2024-02-21T08:11:06;10.02;;;4.05;;
6438;SDS011;3252;52.540;13.290;2024-02-21T08:13:08;12.63;;;4.50;;
6438;SDS011;3252;52.540;13.290;2024-02-21T08:15:10;9.77;;;4.28;;
6438;SDS011;3252;52.540;13.290;2024-02-21T08:17:12;11.75;;;4.15;;
6438;SDS011;3252;52.540;13.290;2024-02-21T08:19:14;7.82;;;3.97;;
6438;SDS011;3252;52.540;13.290;2024-02-21T08:21:17;11.13;;;3.95;;
6438;SDS011;3252;52.540;13.290;2024-02-21T08:23:22;9.85;;;4.60;;
6438;SDS011;3252;52.540;13.290;2024-02-21T08:25:25;10.88;;;4.30;;
6438;SDS011;3252;52.540;13.290;2024-02-21T08:27:26;11.57;;;4.13;;
6438;SDS011;3252;52.540;13.290;2024-02-21T08:32:53;9.85;;;4.10;;
6438;SDS011;3252;52.540;13.290;2024-02-21T08:34:55;9.02;;;4.47;;
6438;SDS011;3252;52.540;13.290;2024-02-21T08:36:58;9.60;;;4.18;;
6438;SDS011;3252;52.540;13.290;2024-02-21T08:39:00;13.90;;;7.70;;
6438;SDS011;3252;52.540;13.290;2024-02-21T08:41:06;100.57;;;63.92;;
6438;SDS011;3252;52.540;13.290;2024-02-21T08:43:09;615.75;;;476.48;;
6438;SDS011;3252;52.540;13.290;2024-02-21T08:46:00;760.95;;;560.28;;
6438;SDS011;3252;52.540;13.290;2024-02-21T08:48:06;882.58;;;638.00;;
6438;SDS011;3252;52.540;13.290;2024-02-21T08:50:09;918.45;;;644.40;;
6438;SDS011;3252;52.540;13.290;2024-02-21T08:52:36;852.17;;;589.83;;
6438;SDS011;3252;52.540;13.290;2024-02-21T08:54:42;726.78;;;481.40;;
6438;SDS011;3252;52.540;13.290;2024-02-21T08:56:45;700.35;;;455.02;;
6438;SDS011;3252;52.540;13.290;2024-02-21T08:58:48;776.50;;;503.90;;
6438;SDS011;3252;52.540;13.290;2024-02-21T09:00:50;786.40;;;515.45;;
6438;SDS011;3252;52.540;13.290;2024-02-21T09:02:54;1066.75;;;701.10;;
6438;SDS011;3252;52.540;13.290;2024-02-21T09:04:58;1316.10;;;817.08;;
6438;SDS011;3252;52.540;13.290;2024-02-21T09:07:04;1267.32;;;787.72;;
6438;SDS011;3252;52.540;13.290;2024-02-21T09:09:08;1151.82;;;718.75;;
6438;SDS011;3252;52.540;13.290;2024-02-21T09:11:14;1056.85;;;650.67;;
6438;SDS011;3252;52.540;13.290;2024-02-21T09:13:17;874.88;;;531.10;;
6438;SDS011;3252;52.540;13.290;2024-02-21T09:15:20;690.83;;;390.58;;
6438;SDS011;3252;52.540;13.290;2024-02-21T09:17:24;594.10;;;315.35;;
6438;SDS011;3252;52.540;13.290;2024-02-21T09:19:27;448.83;;;197.23;;
6438;SDS011;3252;52.540;13.290;2024-02-21T09:21:30;333.00;;;125.63;;
6438;SDS011;3252;52.540;13.290;2024-02-21T09:23:33;210.18;;;78.50;;
6438;SDS011;3252;52.540;13.290;2024-02-21T09:25:37;132.70;;;43.78;;
6438;SDS011;3252;52.540;13.290;2024-02-21T09:27:43;76.30;;;24.35;;
6438;SDS011;3252;52.540;13.290;2024-02-21T09:29:45;40.78;;;14.05;;
6438;SDS011;3252;52.540;13.290;2024-02-21T09:31:49;24.23;;;8.10;;
6438;SDS011;3252;52.540;13.290;2024-02-21T09:33:52;13.82;;;6.03;;
6438;SDS011;3252;52.540;13.290;2024-02-21T09:35:56;11.63;;;4.80;;
6438;SDS011;3252;52.540;13.290;2024-02-21T09:37:58;9.57;;;4.25;;
6438;SDS011;3252;52.540;13.290;2024-02-21T09:40:04;7.22;;;3.53;;
6438;SDS011;3252;52.540;13.290;2024-02-21T09:42:06;7.68;;;3.75;;
6438;SDS011;3252;52.540;13.290;2024-02-21T09:44:13;9.82;;;3.78;;
6438;SDS011;3252;52.540;13.290;2024-02-21T09:46:16;6.20;;;3.15;;
6438;SDS011;3252;52.540;13.290;2024-02-21T09:48:23;10.15;;;4.03;;
6438;SDS011;3252;52.540;13.290;2024-02-21T09:50:32;6.47;;;3.63;;
6438;SDS011;3252;52.540;13.290;2024-02-21T09:52:36;7.60;;;3.72;;
6438;SDS011;3252;52.540;13.290;2024-02-21T09:54:38;7.00;;;3.47;;
6438;SDS011;3252;52.540;13.290;2024-02-21T09:56:45;9.75;;;3.92;;
6438;SDS011;3252;52.540;13.290;2024-02-21T09:58:47;6.63;;;3.40;;
6438;SDS011;3252;52.540;13.290;2024-02-21T10:00:51;6.65;;;3.28;;
6438;SDS011;3252;52.540;13.290;2024-02-21T10:02:53;5.28;;;2.95;;
6438;SDS011;3252;52.540;13.290;2024-02-21T10:04:56;6.10;;;2.95;;
6438;SDS011;3252;52.540;13.290;2024-02-21T10:06:58;6.45;;;3.20;;
6438;SDS011;3252;52.540;13.290;2024-02-21T10:09:03;7.43;;;3.38;;
6438;SDS011;3252;52.540;13.290;2024-02-21T10:11:06;7.93;;;3.00;;
6438;SDS011;3252;52.540;13.290;2024-02-21T10:13:09;6.03;;;2.90;;
6438;SDS011;3252;52.540;13.290;2024-02-21T10:15:12;7.47;;;2.85;;
6438;SDS011;3252;52.540;13.290;2024-02-21T10:17:16;5.30;;;2.80;;
6438;SDS011;3252;52.540;13.290;2024-02-21T10:19:20;6.72;;;2.85;;
6438;SDS011;3252;52.540;13.290;2024-02-21T10:21:23;6.22;;;2.97;;
6438;SDS011;3252;52.540;13.290;2024-02-21T10:23:25;48.33;;;26.58;;
6438;SDS011;3252;52.540;13.290;2024-02-21T10:25:26;141.73;;;78.22;;
6438;SDS011;3252;52.540;13.290;2024-02-21T10:27:28;531.17;;;363.02;;
6438;SDS011;3252;52.540;13.290;2024-02-21T10:29:30;749.45;;;545.65;;
6438;SDS011;3252;52.540;13.290;2024-02-21T10:31:31;798.22;;;585.47;;
6438;SDS011;3252;52.540;13.290;2024-02-21T10:33:35;731.58;;;514.60;;
6438;SDS011;3252;52.540;13.290;2024-02-21T10:35:38;667.92;;;449.08;;
6438;SDS011;3252;52.540;13.290;2024-02-21T10:37:40;756.38;;;512.47;;
6438;SDS011;3252;52.540;13.290;2024-02-21T10:39:41;407.58;;;208.75;;
6438;SDS011;3252;52.540;13.290;2024-02-21T10:41:44;390.38;;;185.25;;
6438;SDS011;3252;52.540;13.290;2024-02-21T10:43:46;365.63;;;161.48;;
6438;SDS011;3252;52.540;13.290;2024-02-21T10:45:52;189.52;;;75.82;;
6438;SDS011;3252;52.540;13.290;2024-02-21T10:47:55;106.90;;;40.10;;
6438;SDS011;3252;52.540;13.290;2024-02-21T10:50:07;53.03;;;18.75;;
6438;SDS011;3252;52.540;13.290;2024-02-21T10:52:13;1900.28;;;999.90;;
6438;SDS011;3252;52.540;13.290;2024-02-21T10:54:21;307.40;;;165.98;;
6438;SDS011;3252;52.540;13.290;2024-02-21T10:56:38;250.88;;;120.50;;
6438;SDS011;3252;52.540;13.290;2024-02-21T10:58:41;247.35;;;115.60;;
6438;SDS011;3252;52.540;13.290;2024-02-21T11:00:44;357.58;;;180.75;;
6438;SDS011;3252;52.540;13.290;2024-02-21T11:02:46;387.70;;;194.25;;
6438;SDS011;3252;52.540;13.290;2024-02-21T11:04:49;356.38;;;163.55;;
6438;SDS011;3252;52.540;13.290;2024-02-21T11:06:54;411.77;;;222.95;;
6438;SDS011;3252;52.540;13.290;2024-02-21T11:09:01;570.97;;;351.17;;
6438;SDS011;3252;52.540;13.290;2024-02-21T11:11:05;548.30;;;331.60;;
6438;SDS011;3252;52.540;13.290;2024-02-21T11:13:06;354.17;;;167.80;;
6438;SDS011;3252;52.540;13.290;2024-02-21T11:15:09;320.85;;;152.35;;
6438;SDS011;3252;52.540;13.290;2024-02-21T11:17:16;264.60;;;112.32;;
6438;SDS011;3252;52.540;13.290;2024-02-21T11:19:19;196.25;;;76.85;;
6438;SDS011;3252;52.540;13.290;2024-02-21T11:21:32;120.85;;;44.40;;
6438;SDS011;3252;52.540;13.290;2024-02-21T11:23:36;58.05;;;21.17;;
6438;SDS011;3252;52.540;13.290;2024-02-21T11:25:44;39.60;;;13.35;;
6438;SDS011;3252;52.540;13.290;2024-02-21T11:27:45;18.10;;;7.03;;
6438;SDS011;3252;52.540;13.290;2024-02-21T11:29:47;13.07;;;4.65;;
6438;SDS011;3252;52.540;13.290;2024-02-21T11:31:51;7.25;;;3.38;;
6438;SDS011;3252;52.540;13.290;2024-02-21T11:33:54;7.55;;;3.10;;
6438;SDS011;3252;52.540;13.290;2024-02-21T11:35:59;5.72;;;2.65;;
6438;SDS011;3252;52.540;13.290;2024-02-21T11:38:08;5.55;;;2.67;;
6438;SDS011;3252;52.540;13.290;2024-02-21T11:40:16;4.03;;;2.17;;
6438;SDS011;3252;52.540;13.290;2024-02-21T11:42:19;4.25;;;2.30;;
6438;SDS011;3252;52.540;13.290;2024-02-21T11:44:20;3.55;;;2.30;;
6438;SDS011;3252;52.540;13.290;2024-02-21T11:46:22;3.58;;;2.00;;
6438;SDS011;3252;52.540;13.290;2024-02-21T11:48:25;4.47;;;1.95;;
6438;SDS011;3252;52.540;13.290;2024-02-21T11:50:27;3.42;;;2.00;;
6438;SDS011;3252;52.540;13.290;2024-02-21T11:52:29;3.40;;;2.15;;
6438;SDS011;3252;52.540;13.290;2024-02-21T11:54:31;1999.90;;;999.90;;
6438;SDS011;3252;52.540;13.290;2024-02-21T11:56:36;665.58;;;482.60;;
6438;SDS011;3252;52.540;13.290;2024-02-21T11:58:38;886.35;;;643.67;;
6438;SDS011;3252;52.540;13.290;2024-02-21T12:00:40;935.78;;;661.08;;
6438;SDS011;3252;52.540;13.290;2024-02-21T12:03:32;1365.32;;;865.38;;
6438;SDS011;3252;52.540;13.290;2024-02-21T12:05:36;1466.55;;;898.58;;
6438;SDS011;3252;52.540;13.290;2024-02-21T12:07:38;1703.38;;;978.10;;
6438;SDS011;3252;52.540;13.290;2024-02-21T12:09:41;1386.85;;;859.42;;
6438;SDS011;3252;52.540;13.290;2024-02-21T12:11:45;1224.07;;;772.33;;
6438;SDS011;3252;52.540;13.290;2024-02-21T12:13:47;1079.30;;;681.00;;
6438;SDS011;3252;52.540;13.290;2024-02-21T12:15:59;898.88;;;563.50;;
6438;SDS011;3252;52.540;13.290;2024-02-21T12:18:03;739.42;;;442.92;;
6438;SDS011;3252;52.540;13.290;2024-02-21T12:20:06;636.10;;;360.23;;
6438;SDS011;3252;52.540;13.290;2024-02-21T12:22:09;466.60;;;222.93;;
6438;SDS011;3252;52.540;13.290;2024-02-21T12:24:20;364.63;;;148.20;;
6438;SDS011;3252;52.540;13.290;2024-02-21T12:26:24;255.88;;;94.63;;
6438;SDS011;3252;52.540;13.290;2024-02-21T12:28:28;137.07;;;48.38;;